sensor_id;sensor_type;location;lat;lon;timestamp;P1;durP1;ratioP1;P2;durP2;ratioP2
6860;SDS011;3469;47.060;15.460;2024-01-07T00:00:03;3.13;;;1.83;;
6860;SDS011;3469;47.060;15.460;2024-01-07T00:02:34;2.47;;;1.70;;
6860;SDS011;3469;47.060;15.460;2024-01-07T00:05:05;2.47;;;1.83;;
6860;SDS011;3469;47.060;15.460;2024-01-07T00:07:38;2.27;;;1.47;;
6860;SDS011;3469;47.060;15.460;2024-01-07T00:10:09;2.20;;;1.60;;
6860;SDS011;3469;47.060;15.460;2024-01-07T00:12:39;1.23;;;0.97;;
6860;SDS011;3469;47.060;15.460;2024-01-07T00:15:10;2.03;;;1.27;;
6860;SDS011;3469;47.060;15.460;2024-01-07T00:17:40;1.10;;;0.70;;
6860;SDS011;3469;47.060;15.460;2024-01-07T00:20:11;1.67;;;0.60;;
6860;SDS011;3469;47.060;15.460;2024-01-07T00:22:44;0.97;;;0.67;;
6860;SDS011;3469;47.060;15.460;2024-01-07T00:25:14;0.97;;;0.87;;
6860;SDS011;3469;47.060;15.460;2024-01-07T00:27:45;1.37;;;0.80;;
6860;SDS011;3469;47.060;15.460;2024-01-07T00:30:17;1.57;;;0.90;;
6860;SDS011;3469;47.060;15.460;2024-01-07T00:32:48;1.90;;;0.90;;
6860;SDS011;3469;47.060;15.460;2024-01-07T00:35:18;1.43;;;0.80;;
6860;SDS011;3469;47.060;15.460;2024-01-07T00:37:52;1.33;;;0.53;;
6860;SDS011;3469;47.060;15.460;2024-01-07T00:40:23;0.70;;;0.60;;
6860;SDS011;3469;47.060;15.460;2024-01-07T00:42:53;1.57;;;0.60;;
6860;SDS011;3469;47.060;15.460;2024-01-07T00:45:24;0.97;;;0.70;;
6860;SDS011;3469;47.060;15.460;2024-01-07T00:47:54;0.87;;;0.47;;
6860;SDS011;3469;47.060;15.460;2024-01-07T00:50:25;0.80;;;0.50;;
6860;SDS011;3469;47.060;15.460;2024-01-07T00:52:57;0.63;;;0.60;;
6860;SDS011;3469;47.060;15.460;2024-01-07T00:55:28;0.90;;;0.70;;
6860;SDS011;3469;47.060;15.460;2024-01-07T00:58:02;0.70;;;0.40;;
6860;SDS011;3469;47.060;15.460;2024-01-07T01:00:33;0.70;;;0.47;;
6860;SDS011;3469;47.060;15.460;2024-01-07T01:03:04;0.60;;;0.47;;
6860;SDS011;3469;47.060;15.460;2024-01-07T01:05:34;0.73;;;0.40;;
6860;SDS011;3469;47.060;15.460;2024-01-07T01:08:08;0.50;;;0.40;;
6860;SDS011;3469;47.060;15.460;2024-01-07T01:10:38;0.70;;;0.40;;
6860;SDS011;3469;47.060;15.460;2024-01-07T01:13:08;0.80;;;0.40;;
6860;SDS011;3469;47.060;15.460;2024-01-07T01:15:39;0.83;;;0.40;;
6860;SDS011;3469;47.060;15.460;2024-01-07T01:18:10;0.60;;;0.50;;
6860;SDS011;3469;47.060;15.460;2024-01-07T01:20:40;3.50;;;0.50;;
6860;SDS011;3469;47.060;15.460;2024-01-07T01:23:14;0.80;;;0.40;;
6860;SDS011;3469;47.060;15.460;2024-01-07T01:25:44;0.60;;;0.40;;
6860;SDS011;3469;47.060;15.460;2024-01-07T01:28:14;0.70;;;0.60;;
6860;SDS011;3469;47.060;15.460;2024-01-07T01:30:45;0.80;;;0.30;;
6860;SDS011;3469;47.060;15.460;2024-01-07T01:33:15;0.40;;;0.30;;
6860;SDS011;3469;47.060;15.460;2024-01-07T01:35:46;0.60;;;0.40;;
6860;SDS011;3469;47.060;15.460;2024-01-07T01:38:19;1.13;;;0.50;;
6860;SDS011;3469;47.060;15.460;2024-01-07T01:40:51;0.50;;;0.40;;
6860;SDS011;3469;47.060;15.460;2024-01-07T01:43:22;0.60;;;0.40;;
6860;SDS011;3469;47.060;15.460;2024-01-07T01:45:53;0.70;;;0.30;;
6860;SDS011;3469;47.060;15.460;2024-01-07T01:48:24;0.60;;;0.47;;
6860;SDS011;3469;47.060;15.460;2024-01-07T01:50:56;0.53;;;0.43;;
6860;SDS011;3469;47.060;15.460;2024-01-07T01:53:29;0.53;;;0.40;;
6860;SDS011;3469;47.060;15.460;2024-01-07T01:55:59;0.73;;;0.40;;
6860;SDS011;3469;47.060;15.460;2024-01-07T01:58:31;0.93;;;0.50;;
6860;SDS011;3469;47.060;15.460;2024-01-07T02:01:03;0.60;;;0.30;;
6860;SDS011;3469;47.060;15.460;2024-01-07T02:03:33;0.60;;;0.40;;
6860;SDS011;3469;47.060;15.460;2024-01-07T02:06:04;0.50;;;0.30;;
6860;SDS011;3469;47.060;15.460;2024-01-07T02:08:37;1.53;;;0.40;;
6860;SDS011;3469;47.060;15.460;2024-01-07T02:11:15;0.90;;;0.43;;
6860;SDS011;3469;47.060;15.460;2024-01-07T02:13:46;0.50;;;0.40;;
6860;SDS011;3469;47.060;15.460;2024-01-07T02:16:16;0.60;;;0.40;;
6860;SDS011;3469;47.060;15.460;2024-01-07T02:18:48;0.50;;;0.30;;
6860;SDS011;3469;47.060;15.460;2024-01-07T02:21:18;0.50;;;0.40;;
6860;SDS011;3469;47.060;15.460;2024-01-07T02:23:51;0.60;;;0.40;;
6860;SDS011;3469;47.060;15.460;2024-01-07T02:26:24;1.30;;;0.40;;
6860;SDS011;3469;47.060;15.460;2024-01-07T02:28:56;0.50;;;0.40;;
6860;SDS011;3469;47.060;15.460;2024-01-07T02:31:27;0.70;;;0.40;;
6860;SDS011;3469;47.060;15.460;2024-01-07T02:33:57;0.60;;;0.40;;
6860;SDS011;3469;47.060;15.460;2024-01-07T02:36:28;0.60;;;0.30;;
6860;SDS011;3469;47.060;15.460;2024-01-07T02:38:58;0.70;;;0.40;;
6860;SDS011;3469;47.060;15.460;2024-01-07T02:41:31;0.50;;;0.40;;
6860;SDS011;3469;47.060;15.460;2024-01-07T02:44:01;0.50;;;0.40;;
6860;SDS011;3469;47.060;15.460;2024-01-07T02:46:32;0.50;;;0.40;;
6860;SDS011;3469;47.060;15.460;2024-01-07T02:49:03;0.60;;;0.40;;
6860;SDS011;3469;47.060;15.460;2024-01-07T02:51:33;0.43;;;0.30;;
6860;SDS011;3469;47.060;15.460;2024-01-07T02:54:04;0.60;;;0.40;;
6860;SDS011;3469;47.060;15.460;2024-01-07T02:56:37;0.80;;;0.57;;
6860;SDS011;3469;47.060;15.460;2024-01-07T02:59:08;0.53;;;0.37;;
6860;SDS011;3469;47.060;15.460;2024-01-07T03:01:38;1.27;;;0.40;;
6860;SDS011;3469;47.060;15.460;2024-01-07T03:04:10;0.90;;;0.50;;
6860;SDS011;3469;47.060;15.460;2024-01-07T03:06:40;1.03;;;0.40;;
6860;SDS011;3469;47.060;15.460;2024-01-07T03:09:11;1.10;;;0.50;;
6860;SDS011;3469;47.060;15.460;2024-01-07T03:11:44;0.73;;;0.50;;
6860;SDS011;3469;47.060;15.460;2024-01-07T03:14:14;0.77;;;0.40;;
6860;SDS011;3469;47.060;15.460;2024-01-07T03:16:47;0.97;;;0.83;;
6860;SDS011;3469;47.060;15.460;2024-01-07T03:19:17;0.93;;;0.50;;
6860;SDS011;3469;47.060;15.460;2024-01-07T03:21:48;0.50;;;0.40;;
6860;SDS011;3469;47.060;15.460;2024-01-07T03:24:18;0.73;;;0.53;;
6860;SDS011;3469;47.060;15.460;2024-01-07T03:26:52;0.80;;;0.50;;
6860;SDS011;3469;47.060;15.460;2024-01-07T03:29:22;0.70;;;0.50;;
6860;SDS011;3469;47.060;15.460;2024-01-07T03:31:52;1.50;;;1.00;;
6860;SDS011;3469;47.060;15.460;2024-01-07T03:34:23;2.40;;;0.70;;
6860;SDS011;3469;47.060;15.460;2024-01-07T03:36:53;1.20;;;0.70;;
6860;SDS011;3469;47.060;15.460;2024-01-07T03:39:21;1.10;;;0.67;;
6860;SDS011;3469;47.060;15.460;2024-01-07T03:41:56;0.50;;;0.40;;
6860;SDS011;3469;47.060;15.460;2024-01-07T03:44:27;0.77;;;0.60;;
6860;SDS011;3469;47.060;15.460;2024-01-07T03:46:57;1.00;;;0.60;;
6860;SDS011;3469;47.060;15.460;2024-01-07T03:49:28;0.60;;;0.50;;
6860;SDS011;3469;47.060;15.460;2024-01-07T03:51:58;0.93;;;0.40;;
6860;SDS011;3469;47.060;15.460;2024-01-07T03:54:29;0.67;;;0.50;;
6860;SDS011;3469;47.060;15.460;2024-01-07T03:57:02;0.60;;;0.40;;
6860;SDS011;3469;47.060;15.460;2024-01-07T03:59:33;0.60;;;0.60;;
6860;SDS011;3469;47.060;15.460;2024-01-07T04:02:03;1.27;;;0.40;;
6860;SDS011;3469;47.060;15.460;2024-01-07T04:04:33;0.60;;;0.50;;
6860;SDS011;3469;47.060;15.460;2024-01-07T04:07:04;1.20;;;0.80;;
6860;SDS011;3469;47.060;15.460;2024-01-07T04:09:34;1.00;;;0.50;;
6860;SDS011;3469;47.060;15.460;2024-01-07T04:12:07;1.13;;;0.70;;
6860;SDS011;3469;47.060;15.460;2024-01-07T04:14:38;0.83;;;0.77;;
6860;SDS011;3469;47.060;15.460;2024-01-07T04:17:08;1.17;;;0.70;;
6860;SDS011;3469;47.060;15.460;2024-01-07T04:19:38;0.80;;;0.60;;
6860;SDS011;3469;47.060;15.460;2024-01-07T04:22:09;0.70;;;0.53;;
6860;SDS011;3469;47.060;15.460;2024-01-07T04:24:40;0.70;;;0.50;;
6860;SDS011;3469;47.060;15.460;2024-01-07T04:27:14;1.77;;;0.60;;
6860;SDS011;3469;47.060;15.460;2024-01-07T04:29:44;3.13;;;1.53;;
6860;SDS011;3469;47.060;15.460;2024-01-07T04:32:14;3.57;;;1.90;;
6860;SDS011;3469;47.060;15.460;2024-01-07T04:34:45;0.90;;;0.70;;
6860;SDS011;3469;47.060;15.460;2024-01-07T04:37:15;2.00;;;0.90;;
6860;SDS011;3469;47.060;15.460;2024-01-07T04:39:46;0.73;;;0.67;;
6860;SDS011;3469;47.060;15.460;2024-01-07T04:42:19;1.17;;;0.57;;
6860;SDS011;3469;47.060;15.460;2024-01-07T04:44:49;0.80;;;0.40;;
6860;SDS011;3469;47.060;15.460;2024-01-07T04:47:26;0.93;;;0.77;;
6860;SDS011;3469;47.060;15.460;2024-01-07T04:49:54;1.53;;;0.83;;
6860;SDS011;3469;47.060;15.460;2024-01-07T04:52:25;0.80;;;0.60;;
6860;SDS011;3469;47.060;15.460;2024-01-07T04:54:56;0.70;;;0.53;;
6860;SDS011;3469;47.060;15.460;2024-01-07T04:57:29;2.40;;;0.73;;
6860;SDS011;3469;47.060;15.460;2024-01-07T04:59:59;0.90;;;0.70;;
6860;SDS011;3469;47.060;15.460;2024-01-07T05:02:30;0.60;;;0.50;;
6860;SDS011;3469;47.060;15.460;2024-01-07T05:05:01;0.40;;;0.30;;
6860;SDS011;3469;47.060;15.460;2024-01-07T05:07:31;0.80;;;0.40;;
6860;SDS011;3469;47.060;15.460;2024-01-07T05:10:01;1.17;;;0.60;;
6860;SDS011;3469;47.060;15.460;2024-01-07T05:12:35;0.60;;;0.53;;
6860;SDS011;3469;47.060;15.460;2024-01-07T05:15:06;0.60;;;0.40;;
6860;SDS011;3469;47.060;15.460;2024-01-07T05:17:37;0.60;;;0.40;;
6860;SDS011;3469;47.060;15.460;2024-01-07T05:20:09;0.60;;;0.40;;
6860;SDS011;3469;47.060;15.460;2024-01-07T05:22:42;1.97;;;0.63;;
6860;SDS011;3469;47.060;15.460;2024-01-07T05:25:14;0.53;;;0.33;;
6860;SDS011;3469;47.060;15.460;2024-01-07T05:27:47;0.50;;;0.40;;
6860;SDS011;3469;47.060;15.460;2024-01-07T05:30:18;0.50;;;0.30;;
6860;SDS011;3469;47.060;15.460;2024-01-07T05:32:49;0.60;;;0.40;;
6860;SDS011;3469;47.060;15.460;2024-01-07T05:35:19;0.73;;;0.57;;
6860;SDS011;3469;47.060;15.460;2024-01-07T05:37:50;0.97;;;0.60;;
6860;SDS011;3469;47.060;15.460;2024-01-07T05:40:21;0.60;;;0.40;;
6860;SDS011;3469;47.060;15.460;2024-01-07T05:42:54;0.93;;;0.50;;
6860;SDS011;3469;47.060;15.460;2024-01-07T05:45:24;0.50;;;0.30;;
6860;SDS011;3469;47.060;15.460;2024-01-07T05:47:54;0.60;;;0.40;;
6860;SDS011;3469;47.060;15.460;2024-01-07T05:50:24;1.10;;;0.70;;
6860;SDS011;3469;47.060;15.460;2024-01-07T05:52:55;0.57;;;0.40;;
6860;SDS011;3469;47.060;15.460;2024-01-07T05:55:26;0.57;;;0.37;;
6860;SDS011;3469;47.060;15.460;2024-01-07T05:57:59;0.60;;;0.40;;
6860;SDS011;3469;47.060;15.460;2024-01-07T06:00:29;0.97;;;0.40;;
6860;SDS011;3469;47.060;15.460;2024-01-07T06:02:59;1.17;;;0.40;;
6860;SDS011;3469;47.060;15.460;2024-01-07T06:05:30;1.47;;;0.67;;
6860;SDS011;3469;47.060;15.460;2024-01-07T06:08:00;0.87;;;0.50;;
6860;SDS011;3469;47.060;15.460;2024-01-07T06:10:31;0.80;;;0.40;;
6860;SDS011;3469;47.060;15.460;2024-01-07T06:13:04;0.73;;;0.60;;
6860;SDS011;3469;47.060;15.460;2024-01-07T06:15:34;0.70;;;0.50;;
6860;SDS011;3469;47.060;15.460;2024-01-07T06:18:05;1.10;;;0.90;;
6860;SDS011;3469;47.060;15.460;2024-01-07T06:20:36;1.43;;;0.97;;
6860;SDS011;3469;47.060;15.460;2024-01-07T06:23:06;3.77;;;1.27;;
6860;SDS011;3469;47.060;15.460;2024-01-07T06:25:36;2.10;;;1.00;;
6860;SDS011;3469;47.060;15.460;2024-01-07T06:28:09;1.53;;;0.63;;
6860;SDS011;3469;47.060;15.460;2024-01-07T06:30:40;4.00;;;1.70;;
6860;SDS011;3469;47.060;15.460;2024-01-07T06:33:10;1.67;;;0.60;;
6860;SDS011;3469;47.060;15.460;2024-01-07T06:35:40;3.50;;;1.17;;
6860;SDS011;3469;47.060;15.460;2024-01-07T06:38:11;3.83;;;1.53;;
6860;SDS011;3469;47.060;15.460;2024-01-07T06:40:42;1.80;;;0.77;;
6860;SDS011;3469;47.060;15.460;2024-01-07T06:43:15;0.60;;;0.40;;
6860;SDS011;3469;47.060;15.460;2024-01-07T06:45:45;1.80;;;0.80;;
6860;SDS011;3469;47.060;15.460;2024-01-07T06:48:16;0.97;;;0.67;;
6860;SDS011;3469;47.060;15.460;2024-01-07T06:50:46;2.23;;;1.30;;
6860;SDS011;3469;47.060;15.460;2024-01-07T06:53:17;2.27;;;1.03;;
6860;SDS011;3469;47.060;15.460;2024-01-07T06:55:48;1.03;;;0.77;;
6860;SDS011;3469;47.060;15.460;2024-01-07T06:58:21;1.00;;;0.50;;
6860;SDS011;3469;47.060;15.460;2024-01-07T07:00:51;2.87;;;2.00;;
6860;SDS011;3469;47.060;15.460;2024-01-07T07:03:23;0.87;;;0.50;;
6860;SDS011;3469;47.060;15.460;2024-01-07T07:05:54;0.90;;;0.70;;
6860;SDS011;3469;47.060;15.460;2024-01-07T07:08:24;1.00;;;0.50;;
6860;SDS011;3469;47.060;15.460;2024-01-07T07:10:55;0.90;;;0.67;;
6860;SDS011;3469;47.060;15.460;2024-01-07T07:13:28;1.70;;;0.60;;
6860;SDS011;3469;47.060;15.460;2024-01-07T07:15:58;0.50;;;0.30;;
6860;SDS011;3469;47.060;15.460;2024-01-07T07:18:30;1.87;;;0.47;;
6860;SDS011;3469;47.060;15.460;2024-01-07T07:21:00;2.10;;;0.53;;
6860;SDS011;3469;47.060;15.460;2024-01-07T07:23:30;1.60;;;1.03;;
6860;SDS011;3469;47.060;15.460;2024-01-07T07:26:01;0.77;;;0.47;;
6860;SDS011;3469;47.060;15.460;2024-01-07T07:28:34;0.77;;;0.53;;
6860;SDS011;3469;47.060;15.460;2024-01-07T07:31:04;0.80;;;0.50;;
6860;SDS011;3469;47.060;15.460;2024-01-07T07:33:37;0.57;;;0.33;;
6860;SDS011;3469;47.060;15.460;2024-01-07T07:36:08;0.70;;;0.50;;
6860;SDS011;3469;47.060;15.460;2024-01-07T07:38:39;0.60;;;0.30;;
6860;SDS011;3469;47.060;15.460;2024-01-07T07:41:09;0.70;;;0.57;;
6860;SDS011;3469;47.060;15.460;2024-01-07T07:43:42;0.70;;;0.60;;
6860;SDS011;3469;47.060;15.460;2024-01-07T07:46:12;1.33;;;0.40;;
6860;SDS011;3469;47.060;15.460;2024-01-07T07:48:46;0.50;;;0.37;;
6860;SDS011;3469;47.060;15.460;2024-01-07T07:51:16;0.50;;;0.30;;
6860;SDS011;3469;47.060;15.460;2024-01-07T07:53:47;0.50;;;0.40;;
6860;SDS011;3469;47.060;15.460;2024-01-07T07:56:17;0.70;;;0.37;;
6860;SDS011;3469;47.060;15.460;2024-01-07T07:58:50;1.13;;;0.50;;
6860;SDS011;3469;47.060;15.460;2024-01-07T08:01:21;0.50;;;0.30;;
6860;SDS011;3469;47.060;15.460;2024-01-07T08:03:51;0.60;;;0.40;;
6860;SDS011;3469;47.060;15.460;2024-01-07T08:06:23;0.60;;;0.40;;
6860;SDS011;3469;47.060;15.460;2024-01-07T08:08:53;0.80;;;0.33;;
6860;SDS011;3469;47.060;15.460;2024-01-07T08:11:23;0.80;;;0.53;;
6860;SDS011;3469;47.060;15.460;2024-01-07T08:13:56;0.60;;;0.40;;
6860;SDS011;3469;47.060;15.460;2024-01-07T08:16:28;0.47;;;0.30;;
6860;SDS011;3469;47.060;15.460;2024-01-07T08:18:58;0.77;;;0.50;;
6860;SDS011;3469;47.060;15.460;2024-01-07T08:21:29;0.50;;;0.40;;
6860;SDS011;3469;47.060;15.460;2024-01-07T08:23:59;0.60;;;0.37;;
6860;SDS011;3469;47.060;15.460;2024-01-07T08:26:31;0.87;;;0.30;;
6860;SDS011;3469;47.060;15.460;2024-01-07T08:29:04;0.50;;;0.40;;
6860;SDS011;3469;47.060;15.460;2024-01-07T08:31:34;1.17;;;0.70;;
6860;SDS011;3469;47.060;15.460;2024-01-07T08:34:05;0.50;;;0.30;;
6860;SDS011;3469;47.060;15.460;2024-01-07T08:36:36;0.50;;;0.33;;
6860;SDS011;3469;47.060;15.460;2024-01-07T08:39:06;0.80;;;0.50;;
6860;SDS011;3469;47.060;15.460;2024-01-07T08:41:38;3.03;;;0.60;;
6860;SDS011;3469;47.060;15.460;2024-01-07T08:44:11;1.20;;;0.60;;
6860;SDS011;3469;47.060;15.460;2024-01-07T08:46:41;2.07;;;0.60;;
6860;SDS011;3469;47.060;15.460;2024-01-07T08:49:09;1.20;;;0.73;;
6860;SDS011;3469;47.060;15.460;2024-01-07T08:51:40;0.87;;;0.50;;
6860;SDS011;3469;47.060;15.460;2024-01-07T08:54:11;0.50;;;0.30;;
6860;SDS011;3469;47.060;15.460;2024-01-07T08:56:42;0.53;;;0.40;;
6860;SDS011;3469;47.060;15.460;2024-01-07T08:59:15;1.50;;;0.57;;
6860;SDS011;3469;47.060;15.460;2024-01-07T09:01:45;1.40;;;0.80;;
6860;SDS011;3469;47.060;15.460;2024-01-07T09:04:16;1.07;;;0.73;;
6860;SDS011;3469;47.060;15.460;2024-01-07T09:06:46;1.67;;;0.70;;
6860;SDS011;3469;47.060;15.460;2024-01-07T09:09:17;1.47;;;0.97;;
6860;SDS011;3469;47.060;15.460;2024-01-07T09:11:47;1.80;;;0.70;;
6860;SDS011;3469;47.060;15.460;2024-01-07T09:14:20;0.60;;;0.40;;
6860;SDS011;3469;47.060;15.460;2024-01-07T09:16:52;0.90;;;0.60;;
6860;SDS011;3469;47.060;15.460;2024-01-07T09:19:22;0.63;;;0.50;;
6860;SDS011;3469;47.060;15.460;2024-01-07T09:21:53;1.20;;;0.60;;
6860;SDS011;3469;47.060;15.460;2024-01-07T09:24:23;0.70;;;0.50;;
6860;SDS011;3469;47.060;15.460;2024-01-07T09:26:53;1.17;;;0.50;;
6860;SDS011;3469;47.060;15.460;2024-01-07T09:29:26;1.00;;;0.60;;
6860;SDS011;3469;47.060;15.460;2024-01-07T09:31:57;0.70;;;0.67;;
6860;SDS011;3469;47.060;15.460;2024-01-07T09:34:27;0.70;;;0.40;;
6860;SDS011;3469;47.060;15.460;2024-01-07T09:36:58;1.00;;;0.70;;
6860;SDS011;3469;47.060;15.460;2024-01-07T09:39:28;1.47;;;0.60;;
6860;SDS011;3469;47.060;15.460;2024-01-07T09:41:59;0.83;;;0.70;;
6860;SDS011;3469;47.060;15.460;2024-01-07T09:44:32;0.70;;;0.47;;
6860;SDS011;3469;47.060;15.460;2024-01-07T09:47:05;0.60;;;0.43;;
6860;SDS011;3469;47.060;15.460;2024-01-07T09:49:38;1.13;;;0.60;;
6860;SDS011;3469;47.060;15.460;2024-01-07T09:52:10;1.13;;;0.70;;
6860;SDS011;3469;47.060;15.460;2024-01-07T09:54:41;1.00;;;0.80;;
6860;SDS011;3469;47.060;15.460;2024-01-07T09:57:12;0.90;;;0.70;;
6860;SDS011;3469;47.060;15.460;2024-01-07T09:59:45;0.73;;;0.60;;
6860;SDS011;3469;47.060;15.460;2024-01-07T10:02:17;1.07;;;0.97;;
6860;SDS011;3469;47.060;15.460;2024-01-07T10:04:49;0.60;;;0.50;;
6860;SDS011;3469;47.060;15.460;2024-01-07T10:07:19;0.87;;;0.80;;
6860;SDS011;3469;47.060;15.460;2024-01-07T10:09:49;0.80;;;0.63;;
6860;SDS011;3469;47.060;15.460;2024-01-07T10:12:22;1.50;;;1.00;;
6860;SDS011;3469;47.060;15.460;2024-01-07T10:14:56;1.90;;;1.10;;
6860;SDS011;3469;47.060;15.460;2024-01-07T10:17:26;1.10;;;0.80;;
6860;SDS011;3469;47.060;15.460;2024-01-07T10:19:57;4.63;;;1.10;;
6860;SDS011;3469;47.060;15.460;2024-01-07T10:22:27;2.73;;;1.07;;
6860;SDS011;3469;47.060;15.460;2024-01-07T10:24:58;1.37;;;1.10;;
6860;SDS011;3469;47.060;15.460;2024-01-07T10:27:29;1.37;;;1.27;;
6860;SDS011;3469;47.060;15.460;2024-01-07T10:30:02;2.00;;;1.40;;
6860;SDS011;3469;47.060;15.460;2024-01-07T10:32:34;1.70;;;1.43;;
6860;SDS011;3469;47.060;15.460;2024-01-07T10:35:07;2.10;;;1.47;;
6860;SDS011;3469;47.060;15.460;2024-01-07T10:37:42;1.40;;;1.03;;
6860;SDS011;3469;47.060;15.460;2024-01-07T10:40:13;2.90;;;1.40;;
6860;SDS011;3469;47.060;15.460;2024-01-07T10:42:44;1.83;;;1.30;;
6860;SDS011;3469;47.060;15.460;2024-01-07T10:45:17;1.90;;;1.43;;
6860;SDS011;3469;47.060;15.460;2024-01-07T10:47:48;3.73;;;1.77;;
6860;SDS011;3469;47.060;15.460;2024-01-07T10:50:20;1.83;;;1.47;;
6860;SDS011;3469;47.060;15.460;2024-01-07T10:52:58;2.27;;;1.50;;
6860;SDS011;3469;47.060;15.460;2024-01-07T10:55:35;1.70;;;1.23;;
6860;SDS011;3469;47.060;15.460;2024-01-07T10:58:06;2.33;;;2.13;;
6860;SDS011;3469;47.060;15.460;2024-01-07T11:00:41;2.97;;;1.90;;
6860;SDS011;3469;47.060;15.460;2024-01-07T11:03:14;2.33;;;1.30;;
6860;SDS011;3469;47.060;15.460;2024-01-07T11:05:49;2.93;;;2.00;;
6860;SDS011;3469;47.060;15.460;2024-01-07T11:08:23;2.90;;;1.60;;
6860;SDS011;3469;47.060;15.460;2024-01-07T11:10:58;4.17;;;2.60;;
6860;SDS011;3469;47.060;15.460;2024-01-07T11:13:32;3.27;;;2.20;;
6860;SDS011;3469;47.060;15.460;2024-01-07T11:16:07;3.83;;;2.07;;
6860;SDS011;3469;47.060;15.460;2024-01-07T11:18:39;4.27;;;2.93;;
6860;SDS011;3469;47.060;15.460;2024-01-07T11:21:10;3.17;;;2.23;;
6860;SDS011;3469;47.060;15.460;2024-01-07T11:23:42;4.30;;;2.60;;
6860;SDS011;3469;47.060;15.460;2024-01-07T11:26:13;3.10;;;1.93;;
6860;SDS011;3469;47.060;15.460;2024-01-07T11:28:44;4.47;;;2.43;;
6860;SDS011;3469;47.060;15.460;2024-01-07T11:31:19;1.53;;;1.10;;
6860;SDS011;3469;47.060;15.460;2024-01-07T11:33:50;2.30;;;1.70;;
6860;SDS011;3469;47.060;15.460;2024-01-07T11:36:22;2.03;;;1.50;;
6860;SDS011;3469;47.060;15.460;2024-01-07T11:38:53;2.27;;;1.20;;
6860;SDS011;3469;47.060;15.460;2024-01-07T11:41:24;3.33;;;1.73;;
6860;SDS011;3469;47.060;15.460;2024-01-07T11:43:56;3.37;;;2.13;;
6860;SDS011;3469;47.060;15.460;2024-01-07T11:46:34;2.50;;;1.80;;
6860;SDS011;3469;47.060;15.460;2024-01-07T11:49:05;4.10;;;2.67;;
6860;SDS011;3469;47.060;15.460;2024-01-07T11:51:39;5.10;;;2.77;;
6860;SDS011;3469;47.060;15.460;2024-01-07T11:54:09;2.87;;;2.43;;
6860;SDS011;3469;47.060;15.460;2024-01-07T11:56:40;3.90;;;3.00;;
6860;SDS011;3469;47.060;15.460;2024-01-07T11:59:10;8.47;;;4.40;;
6860;SDS011;3469;47.060;15.460;2024-01-07T12:01:44;4.60;;;3.23;;
6860;SDS011;3469;47.060;15.460;2024-01-07T12:04:16;3.03;;;2.37;;
6860;SDS011;3469;47.060;15.460;2024-01-07T12:06:46;3.03;;;2.07;;
6860;SDS011;3469;47.060;15.460;2024-01-07T12:09:17;2.53;;;2.13;;
6860;SDS011;3469;47.060;15.460;2024-01-07T12:11:48;3.47;;;2.03;;
6860;SDS011;3469;47.060;15.460;2024-01-07T12:14:19;3.10;;;2.10;;
6860;SDS011;3469;47.060;15.460;2024-01-07T12:16:52;2.37;;;1.60;;
6860;SDS011;3469;47.060;15.460;2024-01-07T12:19:22;2.07;;;1.40;;
6860;SDS011;3469;47.060;15.460;2024-01-07T12:22:00;2.43;;;1.50;;
6860;SDS011;3469;47.060;15.460;2024-01-07T12:24:31;2.30;;;1.63;;
6860;SDS011;3469;47.060;15.460;2024-01-07T12:27:05;1.13;;;0.80;;
6860;SDS011;3469;47.060;15.460;2024-01-07T12:29:36;1.00;;;0.70;;
6860;SDS011;3469;47.060;15.460;2024-01-07T12:32:10;1.60;;;1.07;;
6860;SDS011;3469;47.060;15.460;2024-01-07T12:34:42;0.80;;;0.60;;
6860;SDS011;3469;47.060;15.460;2024-01-07T12:37:13;1.20;;;0.70;;
6860;SDS011;3469;47.060;15.460;2024-01-07T12:39:43;1.77;;;1.00;;
6860;SDS011;3469;47.060;15.460;2024-01-07T12:42:14;1.23;;;1.10;;
6860;SDS011;3469;47.060;15.460;2024-01-07T12:44:45;1.00;;;0.70;;
6860;SDS011;3469;47.060;15.460;2024-01-07T12:47:18;1.43;;;0.67;;
6860;SDS011;3469;47.060;15.460;2024-01-07T12:49:49;1.10;;;0.83;;
6860;SDS011;3469;47.060;15.460;2024-01-07T12:52:19;0.90;;;0.67;;
6860;SDS011;3469;47.060;15.460;2024-01-07T12:54:49;1.00;;;0.87;;
6860;SDS011;3469;47.060;15.460;2024-01-07T12:57:21;1.33;;;0.83;;
6860;SDS011;3469;47.060;15.460;2024-01-07T12:59:52;0.87;;;0.63;;
6860;SDS011;3469;47.060;15.460;2024-01-07T13:02:25;1.87;;;1.03;;
6860;SDS011;3469;47.060;15.460;2024-01-07T13:04:55;1.80;;;1.10;;
6860;SDS011;3469;47.060;15.460;2024-01-07T13:07:26;1.20;;;0.83;;
6860;SDS011;3469;47.060;15.460;2024-01-07T13:09:57;1.27;;;0.80;;
6860;SDS011;3469;47.060;15.460;2024-01-07T13:12:29;1.00;;;0.70;;
6860;SDS011;3469;47.060;15.460;2024-01-07T13:15:09;2.13;;;0.90;;
6860;SDS011;3469;47.060;15.460;2024-01-07T13:17:46;0.90;;;0.70;;
6860;SDS011;3469;47.060;15.460;2024-01-07T13:20:16;2.53;;;0.90;;
6860;SDS011;3469;47.060;15.460;2024-01-07T13:22:47;0.90;;;0.70;;
6860;SDS011;3469;47.060;15.460;2024-01-07T13:25:17;1.20;;;0.80;;
6860;SDS011;3469;47.060;15.460;2024-01-07T13:27:47;1.67;;;0.70;;
6860;SDS011;3469;47.060;15.460;2024-01-07T13:30:18;2.30;;;1.10;;
6860;SDS011;3469;47.060;15.460;2024-01-07T13:32:51;1.13;;;0.93;;
6860;SDS011;3469;47.060;15.460;2024-01-07T13:35:24;1.27;;;0.73;;
6860;SDS011;3469;47.060;15.460;2024-01-07T13:37:55;1.90;;;0.80;;
6860;SDS011;3469;47.060;15.460;2024-01-07T13:40:25;1.03;;;0.57;;
6860;SDS011;3469;47.060;15.460;2024-01-07T13:42:55;2.07;;;1.00;;
6860;SDS011;3469;47.060;15.460;2024-01-07T13:45:26;3.33;;;1.17;;
6860;SDS011;3469;47.060;15.460;2024-01-07T13:47:59;1.00;;;0.67;;
6860;SDS011;3469;47.060;15.460;2024-01-07T13:50:30;2.00;;;0.87;;
6860;SDS011;3469;47.060;15.460;2024-01-07T13:53:01;1.20;;;0.93;;
6860;SDS011;3469;47.060;15.460;2024-01-07T13:55:32;1.20;;;0.70;;
6860;SDS011;3469;47.060;15.460;2024-01-07T13:58:02;0.87;;;0.70;;
6860;SDS011;3469;47.060;15.460;2024-01-07T14:00:33;2.60;;;1.40;;
6860;SDS011;3469;47.060;15.460;2024-01-07T14:03:06;0.87;;;0.50;;
6860;SDS011;3469;47.060;15.460;2024-01-07T14:05:36;0.60;;;0.50;;
6860;SDS011;3469;47.060;15.460;2024-01-07T14:08:07;1.10;;;0.50;;
6860;SDS011;3469;47.060;15.460;2024-01-07T14:10:37;1.33;;;0.83;;
6860;SDS011;3469;47.060;15.460;2024-01-07T14:13:07;0.97;;;0.50;;
6860;SDS011;3469;47.060;15.460;2024-01-07T14:15:39;1.00;;;0.60;;
6860;SDS011;3469;47.060;15.460;2024-01-07T14:18:12;1.00;;;0.70;;
6860;SDS011;3469;47.060;15.460;2024-01-07T14:20:44;1.73;;;0.63;;
6860;SDS011;3469;47.060;15.460;2024-01-07T14:23:14;2.73;;;0.83;;
6860;SDS011;3469;47.060;15.460;2024-01-07T14:25:45;1.43;;;0.73;;
6860;SDS011;3469;47.060;15.460;2024-01-07T14:28:15;1.10;;;0.70;;
6860;SDS011;3469;47.060;15.460;2024-01-07T14:30:46;1.13;;;0.77;;
6860;SDS011;3469;47.060;15.460;2024-01-07T14:33:20;1.20;;;0.97;;
6860;SDS011;3469;47.060;15.460;2024-01-07T14:35:51;4.23;;;1.00;;
6860;SDS011;3469;47.060;15.460;2024-01-07T14:38:22;1.13;;;0.80;;
6860;SDS011;3469;47.060;15.460;2024-01-07T14:40:53;1.43;;;0.90;;
6860;SDS011;3469;47.060;15.460;2024-01-07T14:43:24;1.30;;;0.93;;
6860;SDS011;3469;47.060;15.460;2024-01-07T14:45:54;0.60;;;0.40;;
6860;SDS011;3469;47.060;15.460;2024-01-07T14:48:27;0.60;;;0.40;;
6860;SDS011;3469;47.060;15.460;2024-01-07T14:50:58;1.23;;;0.60;;
6860;SDS011;3469;47.060;15.460;2024-01-07T14:53:29;2.60;;;2.10;;
6860;SDS011;3469;47.060;15.460;2024-01-07T14:56:00;0.90;;;0.43;;
6860;SDS011;3469;47.060;15.460;2024-01-07T14:58:30;1.13;;;0.77;;
6860;SDS011;3469;47.060;15.460;2024-01-07T15:01:01;2.17;;;0.70;;
6860;SDS011;3469;47.060;15.460;2024-01-07T15:03:34;0.87;;;0.70;;
6860;SDS011;3469;47.060;15.460;2024-01-07T15:06:05;6.63;;;1.40;;
6860;SDS011;3469;47.060;15.460;2024-01-07T15:08:36;1.13;;;0.80;;
6860;SDS011;3469;47.060;15.460;2024-01-07T15:11:06;0.80;;;0.60;;
6860;SDS011;3469;47.060;15.460;2024-01-07T15:13:36;1.13;;;0.60;;
6860;SDS011;3469;47.060;15.460;2024-01-07T15:16:07;1.60;;;0.97;;
6860;SDS011;3469;47.060;15.460;2024-01-07T15:18:40;5.67;;;3.70;;
6860;SDS011;3469;47.060;15.460;2024-01-07T15:21:11;2.67;;;2.10;;
6860;SDS011;3469;47.060;15.460;2024-01-07T15:23:41;2.60;;;1.50;;